Chenoa, IL (61726)

9:24 AM CDT on September 03, 2015 (GMT -0500)
APRSWXNET | | Change Station
CLOSE
Current Station
Personal Weather Station
Location: Pontiac, IL
Elevation: 646 ft
Nearby Weather Stations

Elev 646 ft 40.88 °N, 88.63 °W | Updated 49 minutes ago

Clear
Clear
77 °F
Feels Like 79 °F
N
2
Wind Variable Wind from West
Gusts 8.0 mph

Today
High -- | Low -- °F
--% Chance of Precip.
Yesterday
High -- | Low -- °F
Precip. -- in
6:23 AM 7:24 PM
Waning Gibbous, 70% visible
Pressure 30.00 in
Visibility 10.0 miles
Clouds Scattered Clouds 4700 ft
Heat Index 79 °F
Dew Point 70 °F
Humidity 79%
Rainfall in
Snow Depth Not available.
UV 3 out of 12
Pollen 10.20 out of 12
Air Quality Not available.
Flu Activity Not available.
METAR KPNT 031415Z AUTO 23005KT 10SM SCT047 27/22 A3000 RMK AO2 T02700224
Pressure 30.00 in
Visibility 10.0 miles
Clouds Scattered Clouds 4700 ft
Heat Index 79 °F
Dew Point 70 °F
Humidity 79%
Rainfall in
Snow Depth Not available.
UV 3 out of 12
Pollen 10.20 out of 12
Air Quality Not available.
Flu Activity Not available.
METAR KPNT 031415Z AUTO 23005KT 10SM SCT047 27/22 A3000 RMK AO2 T02700224

10-Day Weather Forecast

×

Almanac

Astronomy

Sep. 03, 2015 Rise Set
Actual Time
Civil Twilight
Nautical Twilight
Astronomical Twilight
Moon
Length of Visible Light
Length of Day
Tomorrow will be .
, % of the Moon is Illuminated

Today's Extremes

State Highs State Lows

Community

WunderPhotos

Upload Photos

1,851,959 photos uploaded!

WunderBlogs® & News

Nearby

Air Quality

  Air Quality AQ Index Pollutant
Not available.

Snow Depth

Station Depth Elevation

Earthquake Activity

City Distance Mag. Time & Date
Minimum magnitude displayed is 2.5.

Coastal Water Temperatures

Place Temperature

Stations

Nearby Weather Stations

Station Location Temp. Windchill Dew Point Humidity Wind Precip. Elev Updated Type